Coral Favia — PHKM — position and weather

sailwx.info

Track history (hours):
 
Tides and Currents Weather Stations Pressure Air Temp Water Temp Dewpoint Dewpoint Depression Visibility Wind Speed Wind Dir Waves Ship Positions

Coral Favia

Last reported at 2016-Feb-10 21:33 UTC. Time now 2016-Feb-10 22:07 UTC.
Position N 53°17' W 002°51'.

Length 100 m; beam 17 m.

Type: Tanker. MMSI: 244627000.

Date/timePositionNaut miles runAvg speedWind from/ knotsBaromVisibWave heightAir tempDewpointWater temp
2016-Feb-10 21:33N 53°17' W 002°51'0 0.0
2016-Feb-10 20:33N 53°17' W 002°51'0 0.0
2016-Feb-10 19:33N 53°17' W 002°51'0 0.0
2016-Feb-10 18:30N 53°17' W 002°51'0 0.0
2016-Feb-10 17:32N 53°17' W 002°51'0 0.0
2016-Feb-10 16:33N 53°17' W 002°51'0 0.0
2016-Feb-10 15:33N 53°17' W 002°51'0 0.0
2016-Feb-10 14:32N 53°17' W 002°51'0 0.0
2016-Feb-10 13:33N 53°17' W 002°51'0 0.0
2016-Feb-10 12:33N 53°17' W 002°51'0 0.0
2016-Feb-10 11:32N 53°17' W 002°51'0 0.0
2016-Feb-10 10:33N 53°17' W 002°51'0 0.0
2016-Feb-10 09:32N 53°17' W 002°51'0 0.0
2016-Feb-10 08:33N 53°17' W 002°51'0 0.0
2016-Feb-10 07:33N 53°17' W 002°51'0 0.0
2016-Feb-10 06:32N 53°17' W 002°51'0 0.0
2016-Feb-10 05:33N 53°17' W 002°51'0 0.0
2016-Feb-10 04:33N 53°17' W 002°51'0 0.0
2016-Feb-10 03:33N 53°17' W 002°51'4 4.3
2016-Feb-10 02:33N 53°19' W 002°57'2 1.6
2016-Feb-10 01:33N 53°21' W 002°58'3 3.1
2016-Feb-10 00:33N 53°24' W 003°00'8 8.4
2016-Feb-09 23:33N 53°31' W 003°07'9 9.0
2016-Feb-09 22:33N 53°31' W 003°22'7 7.1
2016-Feb-09 21:33N 53°31' W 003°34'6 6.2
2016-Feb-09 20:33N 53°30' W 003°44'6 5.9
2016-Feb-09 19:33N 53°28' W 003°54'2 0.2
2016-Feb-09 07:33N 53°26' W 003°56'3 3.3
2016-Feb-09 06:33N 53°27' W 003°51'7 6.6
2016-Feb-09 05:33N 53°26' W 004°02'3 3.3
2016-Feb-09 04:33N 53°26' W 003°56'3 3.4
2016-Feb-09 03:33N 53°27' W 003°51'3 2.6
2016-Feb-09 02:33N 53°28' W 003°47'3 3.1
2016-Feb-09 01:33N 53°27' W 003°51'5 4.4
2016-Feb-09 00:22N 53°25' W 003°60'2 2.5
2016-Feb-08 23:33N 53°26' W 003°56'5 4.9
2016-Feb-08 22:33N 53°28' W 003°50'6 5.7
2016-Feb-08 21:34N 53°32' W 003°43'3 3.2
2016-Feb-08 20:33N 53°34' W 003°38'2 2.0
2016-Feb-08 19:33N 53°34' W 003°35'3 2.8
2016-Feb-08 18:34N 53°34' W 003°30'3 3.1
2016-Feb-08 17:34N 53°31' W 003°27'2 2.2
2016-Feb-08 16:31N 53°29' W 003°25'0 0.1
2016-Feb-08 15:31N 53°29' W 003°25'0 0.0
2016-Feb-08 14:28N 53°29' W 003°25'0 0.0
2016-Feb-08 13:31N 53°29' W 003°25'0 0.0
2016-Feb-08 12:31N 53°29' W 003°25'0 0.0
2016-Feb-08 11:31N 53°29' W 003°25'0 0.0
2016-Feb-08 10:28N 53°29' W 003°25'0 0.1
2016-Feb-08 09:25N 53°29' W 003°25'0 0.0
2016-Feb-08 08:31N 53°29' W 003°25'0 0.2
2016-Feb-08 07:33N 53°29' W 003°26'0 0.4
2016-Feb-08 06:25N 53°30' W 003°25'0 0.0
2016-Feb-08 05:28N 53°30' W 003°25'0 0.0
2016-Feb-08 04:31N 53°30' W 003°25'0 0.0
2016-Feb-08 03:31N 53°30' W 003°25'0 0.0
2016-Feb-08 02:31N 53°30' W 003°25'0 0.0
2016-Feb-08 01:25N 53°30' W 003°25'0 0.0
2016-Feb-08 00:31N 53°30' W 003°25'0 0.0
2016-Feb-07 23:31N 53°30' W 003°25'0 0.0
2016-Feb-07 22:28N 53°29' W 003°25'0 0.0
2016-Feb-07 21:31N 53°29' W 003°25'0 0.0
2016-Feb-07 20:31N 53°29' W 003°25'0 0.0
2016-Feb-07 19:31N 53°29' W 003°25'0 0.0
2016-Feb-07 18:31N 53°29' W 003°25'0 0.1
2016-Feb-07 17:31N 53°30' W 003°25'0 0.0
2016-Feb-07 16:31N 53°30' W 003°25'0 0.0
2016-Feb-07 15:31N 53°30' W 003°25'0 0.0
2016-Feb-07 14:31N 53°30' W 003°25'0 0.0
2016-Feb-07 13:28N 53°30' W 003°25'0 0.0
2016-Feb-07 12:28N 53°30' W 003°25'0 0.0
2016-Feb-07 11:31N 53°30' W 003°25'0 0.0
2016-Feb-07 10:31N 53°29' W 003°25'0 0.0
2016-Feb-07 09:25N 53°29' W 003°25'0 0.0
2016-Feb-07 08:31N 53°29' W 003°25'0 0.0
2016-Feb-07 07:31N 53°29' W 003°25'0 0.0
2016-Feb-07 06:31N 53°29' W 003°25'0 0.0
2016-Feb-07 05:25N 53°29' W 003°25'0 0.0
2016-Feb-07 04:31N 53°30' W 003°25'0 0.0
2016-Feb-07 03:28N 53°29' W 003°25'0 0.0
2016-Feb-07 02:28N 53°30' W 003°25'0 0.0
2016-Feb-07 01:31N 53°30' W 003°25'0 0.0
2016-Feb-07 00:31N 53°30' W 003°25'0 0.0
2016-Feb-06 23:31N 53°30' W 003°25'0 0.0
2016-Feb-06 22:31N 53°30' W 003°25'0 0.0
2016-Feb-06 21:31N 53°30' W 003°25'0 0.0
2016-Feb-06 20:31N 53°30' W 003°25'0 0.0
2016-Feb-06 19:31N 53°30' W 003°25'0 0.0
2016-Feb-06 18:31N 53°30' W 003°25'0 0.0
2016-Feb-06 17:31N 53°30' W 003°25'0 0.1
2016-Feb-06 16:25N 53°30' W 003°25'0 0.0
2016-Feb-06 15:31N 53°30' W 003°25'0 0.0
2016-Feb-06 14:25N 53°30' W 003°25'0 0.0
2016-Feb-06 13:31N 53°30' W 003°25'0 0.0
2016-Feb-06 12:31N 53°30' W 003°25'0 0.0
2016-Feb-06 11:31N 53°30' W 003°25'0 0.0
2016-Feb-06 10:31N 53°30' W 003°25'0 0.0
2016-Feb-06 09:31N 53°30' W 003°25'0 0.0
2016-Feb-06 08:28N 53°30' W 003°25'0 0.1
2016-Feb-06 07:31N 53°30' W 003°25'0 0.1
2016-Feb-06 06:31N 53°29' W 003°25'0 0.0
2016-Feb-06 05:31N 53°29' W 003°25'0 0.1
2016-Feb-06 04:28N 53°30' W 003°25'0 0.0
2016-Feb-06 03:31N 53°30' W 003°25'0 0.0
2016-Feb-06 02:31N 53°30' W 003°25'0 0.1
2016-Feb-06 01:31N 53°30' W 003°25'0 0.0
2016-Feb-06 00:31N 53°30' W 003°25'0 0.0
2016-Feb-05 23:28N 53°30' W 003°25'0 0.1
2016-Feb-05 22:31N 53°29' W 003°25'0 0.0
2016-Feb-05 21:31N 53°29' W 003°25'0 0.0
2016-Feb-05 20:31N 53°29' W 003°25'0 0.0
2016-Feb-05 19:31N 53°29' W 003°25'0 0.0
2016-Feb-05 18:31N 53°30' W 003°25'0 0.0
2016-Feb-05 17:28N 53°30' W 003°25'0 0.0
2016-Feb-05 16:31N 53°30' W 003°25'0 0.0
2016-Feb-05 15:31N 53°30' W 003°25'0 0.0
2016-Feb-05 14:31N 53°30' W 003°25'0 0.0
2016-Feb-05 13:31N 53°30' W 003°25'0 0.0
2016-Feb-05 12:31N 53°30' W 003°25'0 0.0
2016-Feb-05 11:31N 53°30' W 003°25'0 0.0
2016-Feb-05 10:28N 53°30' W 003°25'0 0.0
2016-Feb-05 09:28N 53°30' W 003°25'0 0.0
2016-Feb-05 08:31N 53°30' W 003°25'0 0.0
2016-Feb-05 07:28N 53°30' W 003°25'0 0.0
2016-Feb-05 06:31N 53°29' W 003°25'0 0.0
2016-Feb-05 05:28N 53°29' W 003°25'0 0.0
2016-Feb-05 04:31N 53°29' W 003°25'0 0.0
2016-Feb-05 03:28N 53°29' W 003°25'0 0.0
2016-Feb-05 02:31N 53°29' W 003°25'3 3.5
2016-Feb-05 01:33N 53°31' W 003°31'1312.6
2016-Feb-05 00:33N 53°30' W 003°52'5911.6
2016-Feb-04 19:29N 52°53' W 005°08'  
2016-Feb-02 14:28N 41°58' W 009°21'1313.0
2016-Feb-02 13:28N 41°46' W 009°13'1212.1
2016-Feb-02 12:30N 41°36' W 009°05'1111.5
2016-Feb-02 11:34N 41°26' W 008°58'1212.0
2016-Feb-02 10:33N 41°16' W 008°50'8 7.6
2016-Feb-02 09:33N 41°11' W 008°42'0 0.2
2016-Feb-02 08:33N 41°11' W 008°43'0 0.0
2016-Feb-02 07:33N 41°11' W 008°43'0 0.0
2016-Feb-02 06:33N 41°11' W 008°43'0 0.0
2016-Feb-02 05:33N 41°11' W 008°43'0 0.0
2016-Feb-02 04:33N 41°11' W 008°43'0 0.0
2016-Feb-02 03:31N 41°11' W 008°43'0 0.0
2016-Feb-02 02:33N 41°11' W 008°43'0 0.0
2016-Feb-02 01:33N 41°11' W 008°43'0 0.0
2016-Feb-02 00:33N 41°11' W 008°43'0 0.0
2016-Feb-01 23:33N 41°11' W 008°43'0 0.0
2016-Feb-01 22:33N 41°11' W 008°43'0 0.0
2016-Feb-01 21:33N 41°11' W 008°43'0 0.0
2016-Feb-01 20:30N 41°11' W 008°43'0 0.0
2016-Feb-01 19:27N 41°11' W 008°43'0 0.0
2016-Feb-01 18:34N 41°11' W 008°43'0 0.0
2016-Feb-01 17:34N 41°11' W 008°43'0 0.0
2016-Feb-01 16:30N 41°11' W 008°43'0 0.0
2016-Feb-01 15:33N 41°11' W 008°43'0 0.0
2016-Feb-01 14:33N 41°11' W 008°43'0 0.0
2016-Feb-01 13:33N 41°11' W 008°43'0 0.0
2016-Feb-01 12:33N 41°11' W 008°43'0 0.0
2016-Feb-01 11:33N 41°11' W 008°43'0 0.0
2016-Feb-01 10:33N 41°11' W 008°43'0 0.0
2016-Feb-01 09:33N 41°11' W 008°43'3 3.4
2016-Feb-01 08:32N 41°10' W 008°47'0 0.0
2016-Feb-01 07:33N 41°10' W 008°47'0 0.0
2016-Feb-01 06:32N 41°10' W 008°47'1 0.9
2016-Feb-01 05:33N 41°11' W 008°47'1110.7
2016-Feb-01 04:33N 41°19' W 008°56'1211.9
2016-Feb-01 03:33N 41°30' W 009°03'1413.5
2016-Feb-01 02:31N 41°42' W 009°13'1112.0
2016-Feb-01 01:33N 41°52' W 009°21'3 3.2
2016-Feb-01 00:33N 41°54' W 009°24'  
Track history (hours):
 
Tides and Currents Weather Stations Pressure Air Temp Water Temp Dewpoint Dewpoint Depression Visibility Wind Speed Wind Dir Waves Ship Positions

Coral Favia

Last reported at 2016-Feb-10 21:33 UTC. Time now 2016-Feb-10 22:07 UTC.
Position N 53°17' W 002°51'.

Length 100 m; beam 17 m.

Type: Tanker. MMSI: 244627000.

Date/timePositionNaut miles runAvg speedWind from/ knotsBaromVisibWave heightAir tempDewpointWater temp
2016-Feb-10 21:33N 53°17' W 002°51'0 0.0
2016-Feb-10 20:33N 53°17' W 002°51'0 0.0
2016-Feb-10 19:33N 53°17' W 002°51'0 0.0
2016-Feb-10 18:30N 53°17' W 002°51'0 0.0
2016-Feb-10 17:32N 53°17' W 002°51'0 0.0
2016-Feb-10 16:33N 53°17' W 002°51'0 0.0
2016-Feb-10 15:33N 53°17' W 002°51'0 0.0
2016-Feb-10 14:32N 53°17' W 002°51'0 0.0
2016-Feb-10 13:33N 53°17' W 002°51'0 0.0
2016-Feb-10 12:33N 53°17' W 002°51'0 0.0
2016-Feb-10 11:32N 53°17' W 002°51'0 0.0
2016-Feb-10 10:33N 53°17' W 002°51'0 0.0
2016-Feb-10 09:32N 53°17' W 002°51'0 0.0
2016-Feb-10 08:33N 53°17' W 002°51'0 0.0
2016-Feb-10 07:33N 53°17' W 002°51'0 0.0
2016-Feb-10 06:32N 53°17' W 002°51'0 0.0
2016-Feb-10 05:33N 53°17' W 002°51'0 0.0
2016-Feb-10 04:33N 53°17' W 002°51'0 0.0
2016-Feb-10 03:33N 53°17' W 002°51'4 4.3
2016-Feb-10 02:33N 53°19' W 002°57'2 1.6
2016-Feb-10 01:33N 53°21' W 002°58'3 3.1
2016-Feb-10 00:33N 53°24' W 003°00'8 8.4
2016-Feb-09 23:33N 53°31' W 003°07'9 9.0
2016-Feb-09 22:33N 53°31' W 003°22'7 7.1
2016-Feb-09 21:33N 53°31' W 003°34'6 6.2
2016-Feb-09 20:33N 53°30' W 003°44'6 5.9
2016-Feb-09 19:33N 53°28' W 003°54'2 0.2
2016-Feb-09 07:33N 53°26' W 003°56'3 3.3
2016-Feb-09 06:33N 53°27' W 003°51'7 6.6
2016-Feb-09 05:33N 53°26' W 004°02'3 3.3
2016-Feb-09 04:33N 53°26' W 003°56'3 3.4
2016-Feb-09 03:33N 53°27' W 003°51'3 2.6
2016-Feb-09 02:33N 53°28' W 003°47'3 3.1
2016-Feb-09 01:33N 53°27' W 003°51'5 4.4
2016-Feb-09 00:22N 53°25' W 003°60'2 2.5
2016-Feb-08 23:33N 53°26' W 003°56'5 4.9
2016-Feb-08 22:33N 53°28' W 003°50'6 5.7
2016-Feb-08 21:34N 53°32' W 003°43'3 3.2
2016-Feb-08 20:33N 53°34' W 003°38'2 2.0
2016-Feb-08 19:33N 53°34' W 003°35'3 2.8
2016-Feb-08 18:34N 53°34' W 003°30'3 3.1
2016-Feb-08 17:34N 53°31' W 003°27'2 2.2
2016-Feb-08 16:31N 53°29' W 003°25'0 0.1
2016-Feb-08 15:31N 53°29' W 003°25'0 0.0
2016-Feb-08 14:28N 53°29' W 003°25'0 0.0
2016-Feb-08 13:31N 53°29' W 003°25'0 0.0
2016-Feb-08 12:31N 53°29' W 003°25'0 0.0
2016-Feb-08 11:31N 53°29' W 003°25'0 0.0
2016-Feb-08 10:28N 53°29' W 003°25'0 0.1
2016-Feb-08 09:25N 53°29' W 003°25'0 0.0
2016-Feb-08 08:31N 53°29' W 003°25'0 0.2
2016-Feb-08 07:33N 53°29' W 003°26'0 0.4
2016-Feb-08 06:25N 53°30' W 003°25'0 0.0
2016-Feb-08 05:28N 53°30' W 003°25'0 0.0
2016-Feb-08 04:31N 53°30' W 003°25'0 0.0
2016-Feb-08 03:31N 53°30' W 003°25'0 0.0
2016-Feb-08 02:31N 53°30' W 003°25'0 0.0
2016-Feb-08 01:25N 53°30' W 003°25'0 0.0
2016-Feb-08 00:31N 53°30' W 003°25'0 0.0
2016-Feb-07 23:31N 53°30' W 003°25'0 0.0
2016-Feb-07 22:28N 53°29' W 003°25'0 0.0
2016-Feb-07 21:31N 53°29' W 003°25'0 0.0
2016-Feb-07 20:31N 53°29' W 003°25'0 0.0
2016-Feb-07 19:31N 53°29' W 003°25'0 0.0
2016-Feb-07 18:31N 53°29' W 003°25'0 0.1
2016-Feb-07 17:31N 53°30' W 003°25'0 0.0
2016-Feb-07 16:31N 53°30' W 003°25'0 0.0
2016-Feb-07 15:31N 53°30' W 003°25'0 0.0
2016-Feb-07 14:31N 53°30' W 003°25'0 0.0
2016-Feb-07 13:28N 53°30' W 003°25'0 0.0
2016-Feb-07 12:28N 53°30' W 003°25'0 0.0
2016-Feb-07 11:31N 53°30' W 003°25'0 0.0
2016-Feb-07 10:31N 53°29' W 003°25'0 0.0
2016-Feb-07 09:25N 53°29' W 003°25'0 0.0
2016-Feb-07 08:31N 53°29' W 003°25'0 0.0
2016-Feb-07 07:31N 53°29' W 003°25'0 0.0
2016-Feb-07 06:31N 53°29' W 003°25'0 0.0
2016-Feb-07 05:25N 53°29' W 003°25'0 0.0
2016-Feb-07 04:31N 53°30' W 003°25'0 0.0
2016-Feb-07 03:28N 53°29' W 003°25'0 0.0
2016-Feb-07 02:28N 53°30' W 003°25'0 0.0
2016-Feb-07 01:31N 53°30' W 003°25'0 0.0
2016-Feb-07 00:31N 53°30' W 003°25'0 0.0
2016-Feb-06 23:31N 53°30' W 003°25'0 0.0
2016-Feb-06 22:31N 53°30' W 003°25'0 0.0
2016-Feb-06 21:31N 53°30' W 003°25'0 0.0
2016-Feb-06 20:31N 53°30' W 003°25'0 0.0
2016-Feb-06 19:31N 53°30' W 003°25'0 0.0
2016-Feb-06 18:31N 53°30' W 003°25'0 0.0
2016-Feb-06 17:31N 53°30' W 003°25'0 0.1
2016-Feb-06 16:25N 53°30' W 003°25'0 0.0
2016-Feb-06 15:31N 53°30' W 003°25'0 0.0
2016-Feb-06 14:25N 53°30' W 003°25'0 0.0
2016-Feb-06 13:31N 53°30' W 003°25'0 0.0
2016-Feb-06 12:31N 53°30' W 003°25'0 0.0
2016-Feb-06 11:31N 53°30' W 003°25'0 0.0
2016-Feb-06 10:31N 53°30' W 003°25'0 0.0
2016-Feb-06 09:31N 53°30' W 003°25'0 0.0
2016-Feb-06 08:28N 53°30' W 003°25'0 0.1
2016-Feb-06 07:31N 53°30' W 003°25'0 0.1
2016-Feb-06 06:31N 53°29' W 003°25'0 0.0
2016-Feb-06 05:31N 53°29' W 003°25'0 0.1
2016-Feb-06 04:28N 53°30' W 003°25'0 0.0
2016-Feb-06 03:31N 53°30' W 003°25'0 0.0
2016-Feb-06 02:31N 53°30' W 003°25'0 0.1
2016-Feb-06 01:31N 53°30' W 003°25'0 0.0
2016-Feb-06 00:31N 53°30' W 003°25'0 0.0
2016-Feb-05 23:28N 53°30' W 003°25'0 0.1
2016-Feb-05 22:31N 53°29' W 003°25'0 0.0
2016-Feb-05 21:31N 53°29' W 003°25'0 0.0
2016-Feb-05 20:31N 53°29' W 003°25'0 0.0
2016-Feb-05 19:31N 53°29' W 003°25'0 0.0
2016-Feb-05 18:31N 53°30' W 003°25'0 0.0
2016-Feb-05 17:28N 53°30' W 003°25'0 0.0
2016-Feb-05 16:31N 53°30' W 003°25'0 0.0
2016-Feb-05 15:31N 53°30' W 003°25'0 0.0
2016-Feb-05 14:31N 53°30' W 003°25'0 0.0
2016-Feb-05 13:31N 53°30' W 003°25'0 0.0
2016-Feb-05 12:31N 53°30' W 003°25'0 0.0
2016-Feb-05 11:31N 53°30' W 003°25'0 0.0
2016-Feb-05 10:28N 53°30' W 003°25'0 0.0
2016-Feb-05 09:28N 53°30' W 003°25'0 0.0
2016-Feb-05 08:31N 53°30' W 003°25'0 0.0
2016-Feb-05 07:28N 53°30' W 003°25'0 0.0
2016-Feb-05 06:31N 53°29' W 003°25'0 0.0
2016-Feb-05 05:28N 53°29' W 003°25'0 0.0
2016-Feb-05 04:31N 53°29' W 003°25'0 0.0
2016-Feb-05 03:28N 53°29' W 003°25'0 0.0
2016-Feb-05 02:31N 53°29' W 003°25'3 3.5
2016-Feb-05 01:33N 53°31' W 003°31'1312.6
2016-Feb-05 00:33N 53°30' W 003°52'5911.6
2016-Feb-04 19:29N 52°53' W 005°08'  
2016-Feb-02 14:28N 41°58' W 009°21'1313.0
2016-Feb-02 13:28N 41°46' W 009°13'1212.1
2016-Feb-02 12:30N 41°36' W 009°05'1111.5
2016-Feb-02 11:34N 41°26' W 008°58'1212.0
2016-Feb-02 10:33N 41°16' W 008°50'8 7.6
2016-Feb-02 09:33N 41°11' W 008°42'0 0.2
2016-Feb-02 08:33N 41°11' W 008°43'0 0.0
2016-Feb-02 07:33N 41°11' W 008°43'0 0.0
2016-Feb-02 06:33N 41°11' W 008°43'0 0.0
2016-Feb-02 05:33N 41°11' W 008°43'0 0.0
2016-Feb-02 04:33N 41°11' W 008°43'0 0.0
2016-Feb-02 03:31N 41°11' W 008°43'0 0.0
2016-Feb-02 02:33N 41°11' W 008°43'0 0.0
2016-Feb-02 01:33N 41°11' W 008°43'0 0.0
2016-Feb-02 00:33N 41°11' W 008°43'0 0.0
2016-Feb-01 23:33N 41°11' W 008°43'0 0.0
2016-Feb-01 22:33N 41°11' W 008°43'0 0.0
2016-Feb-01 21:33N 41°11' W 008°43'0 0.0
2016-Feb-01 20:30N 41°11' W 008°43'0 0.0
2016-Feb-01 19:27N 41°11' W 008°43'0 0.0
2016-Feb-01 18:34N 41°11' W 008°43'0 0.0
2016-Feb-01 17:34N 41°11' W 008°43'0 0.0
2016-Feb-01 16:30N 41°11' W 008°43'0 0.0
2016-Feb-01 15:33N 41°11' W 008°43'0 0.0
2016-Feb-01 14:33N 41°11' W 008°43'0 0.0
2016-Feb-01 13:33N 41°11' W 008°43'0 0.0
2016-Feb-01 12:33N 41°11' W 008°43'0 0.0
2016-Feb-01 11:33N 41°11' W 008°43'0 0.0
2016-Feb-01 10:33N 41°11' W 008°43'0 0.0
2016-Feb-01 09:33N 41°11' W 008°43'3 3.4
2016-Feb-01 08:32N 41°10' W 008°47'0 0.0
2016-Feb-01 07:33N 41°10' W 008°47'0 0.0
2016-Feb-01 06:32N 41°10' W 008°47'1 0.9
2016-Feb-01 05:33N 41°11' W 008°47'1110.7
2016-Feb-01 04:33N 41°19' W 008°56'1211.9
2016-Feb-01 03:33N 41°30' W 009°03'1413.5
2016-Feb-01 02:31N 41°42' W 009°13'1112.0
2016-Feb-01 01:33N 41°52' W 009°21'3 3.2
2016-Feb-01 00:33N 41°54' W 009°24'  

Dump ship's entire track history